»·PEaware :: N5939V KSBA-KSMX

N5939V :: KSBA-KSMX

FLIGHT INFORMATION

Flight Status: Arrived
Operator: Privately registered:
United States
More flights under this callsign
Pilot: Anonymous 30260 (30260)
Aircraft: SOCATA TBM-900
(TBM9)
More flights by this aircraft type
Origin: KSBA Santa Barbara Mun
United States
Destination: KSMX Santa Maria Pub/Capt Hancock
United States
More flights between these airports :: More routes between these airports
Route: HABUT4 GVO V27 MQO
File this flight plan on PilotEdge
Remarks:
Altitude:
(Current/Filed)
8,000ft
Speed:
(Current/Filed)
252kts
Departed: 19-Oct-20 08:05 PM
Arrived: 19-Oct-20 08:32 PM
Distance/Time
Traveled:
41nm/0:27
Distance/Time
To Go:
Arrived

Flight Plot

Page will automatically refresh every two minutes.

Flight plan parsing failed; only flown route is shown


Map Options




Map Legend


Flown Route
Filed Route
Departure Airport
Arrival Airport
Navaid (VOR, NDB)
Fix

Horizontal Profiles

Position Reports

Time Latitude Longitude Heading Altitude Ground
Speed
19-Oct-20 19:26 34.422365 -119.836081 358 10ft 0kts
19-Oct-20 19:27 34.422365 -119.836081 358 10ft 0kts
19-Oct-20 19:28 34.422365 -119.836081 358 10ft 0kts
19-Oct-20 19:29 34.422365 -119.836081 358 10ft 0kts
19-Oct-20 19:30 34.422365 -119.836081 358 10ft 0kts
19-Oct-20 19:31 34.422365 -119.836081 358 10ft 0kts
19-Oct-20 19:32 34.422365 -119.836081 358 10ft 0kts
19-Oct-20 19:33 34.422365 -119.836081 358 10ft 0kts
19-Oct-20 19:34 34.422365 -119.836081 358 10ft 0kts
19-Oct-20 19:35 34.422365 -119.836081 358 10ft 0kts
19-Oct-20 19:36 34.422365 -119.836081 358 10ft 0kts
19-Oct-20 19:37 34.422466 -119.836084 358 10ft 6kts
19-Oct-20 19:38 34.422644 -119.837245 254 12ft 7kts
19-Oct-20 19:39 34.423862 -119.840517 340 13ft 11kts
19-Oct-20 19:40 34.426645 -119.841747 267 13ft 9kts
19-Oct-20 19:41 34.426587 -119.843781 269 13ft 13kts
19-Oct-20 19:47 34.424055 -119.836828 78 10ft 0kts
19-Oct-20 19:48 34.424055 -119.836828 78 10ft 0kts
19-Oct-20 19:49 34.424055 -119.836828 78 10ft 0kts
19-Oct-20 19:50 34.424055 -119.836828 78 10ft 0kts
19-Oct-20 19:51 34.424055 -119.836828 78 10ft 0kts
19-Oct-20 19:52 34.424055 -119.836828 78 10ft 0kts
19-Oct-20 19:53 34.424055 -119.836828 78 10ft 0kts
19-Oct-20 19:54 34.424055 -119.836828 78 10ft 0kts
19-Oct-20 19:55 34.424055 -119.836828 78 10ft 0kts
19-Oct-20 19:56 34.423913 -119.837132 264 10ft 2kts
19-Oct-20 19:57 34.423907 -119.837183 259 11ft 1kts
19-Oct-20 19:58 34.424845 -119.837779 345 12ft 10kts
19-Oct-20 19:59 34.426677 -119.839722 268 12ft 12kts
19-Oct-20 20:00 34.426559 -119.845069 269 13ft 12kts
19-Oct-20 20:01 34.426468 -119.849781 268 13ft 15kts
19-Oct-20 20:02 34.426608 -119.853710 314 13ft 5kts
19-Oct-20 20:03 34.427542 -119.852464 88 13ft 34kts
19-Oct-20 20:04 34.422793 -119.820207 151 1376ft 119kts
19-Oct-20 20:05 34.406977 -119.854071 288 2996ft 174kts
19-Oct-20 20:06 34.423351 -119.920594 279 3970ft 197kts
19-Oct-20 20:07 34.424278 -119.989230 268 5582ft 195kts
19-Oct-20 20:08 34.422245 -120.059875 268 7333ft 199kts
19-Oct-20 20:09 34.461997 -120.090104 2 8039ft 229kts
19-Oct-20 20:10 34.533974 -120.094337 333 8005ft 251kts
19-Oct-20 20:11 34.591257 -120.146135 323 8028ft 254kts
19-Oct-20 20:12 34.649202 -120.199397 323 8027ft 255kts
19-Oct-20 20:13 34.707128 -120.252752 323 8028ft 255kts
19-Oct-20 20:14 34.766868 -120.307879 323 8037ft 254kts
19-Oct-20 20:15 34.810018 -120.375286 293 7746ft 249kts
19-Oct-20 20:16 34.838446 -120.455615 293 5564ft 252kts
19-Oct-20 20:17 34.862091 -120.526443 293 5038ft 205kts
19-Oct-20 20:18 34.884397 -120.594052 293 5074ft 207kts
19-Oct-20 20:19 34.928632 -120.645071 321 3606ft 214kts
19-Oct-20 20:20 34.972562 -120.684673 323 2971ft 178kts
19-Oct-20 20:21 35.008270 -120.718074 321 2987ft 147kts
19-Oct-20 20:22 35.043997 -120.742137 11 3020ft 154kts
19-Oct-20 20:23 35.065066 -120.700936 62 2580ft 155kts
19-Oct-20 20:24 35.079892 -120.657485 91 1872ft 162kts
19-Oct-20 20:25 35.050800 -120.631852 153 1974ft 159kts
19-Oct-20 20:26 35.018747 -120.594095 131 1951ft 160kts
19-Oct-20 20:27 34.990112 -120.560864 130 2040ft 155kts
19-Oct-20 20:28 34.963808 -120.530197 133 1863ft 148kts
19-Oct-20 20:29 34.934554 -120.495698 133 1002ft 124kts
19-Oct-20 20:30 34.913742 -120.469624 135 433ft 93kts
19-Oct-20 20:31 34.902214 -120.458230 227 264ft 10kts
19-Oct-20 20:32 34.899045 -120.455210 135 264ft 13kts
19-Oct-20 20:33 34.895884 -120.453597 180 264ft 12kts
19-Oct-20 20:34 34.892398 -120.453408 136 264ft 15kts
19-Oct-20 20:35 34.890904 -120.450797 89 264ft 0kts
19-Oct-20 20:36 34.890904 -120.450797 89 264ft 0kts
19-Oct-20 20:37 34.890904 -120.450797 89 264ft 0kts

Navigation Log

Ident Type
Flight plan parsing failed, navigation log unavailable